LSME - Emmen, Switzerland
Distance from HB9FEE: SW 14km
Updated: Wed, 20-Sep-2017 4:50am CEST
Overcast
Overcast
 Wind from SW
Wind: SW 6 km/h
Temperature: 9°C
Dew Point: 9°C
Humidity: 100%
Barometer: 1022 hPa
Clouds: Overcast
Visibility: 16 miles
Cloud details: Partly Cloudy 792 m
Mostly Cloudy 945 m
Overcast 1768 m
2017/09/20 02:50 LSME 200250Z AUTO 23003KT 9999NDV SCT026 BKN031 OVC058 09/09 Q1022 RMK
LSZC - Buochs, Switzerland
Distance from HB9FEE: S 25km
Updated: Wed, 20-Sep-2017 5:50am CEST
Overcast
Overcast
 Wind from varies
Wind: varies 4 km/h
Temperature: 8°C
Dew Point: 7°C
Humidity: 93%
Barometer: 1023 hPa
Clouds: Overcast
Visibility: 10 km
Cloud details: Overcast 1036 m
2017/09/20 03:50 LSZC 200350Z AUTO VRB02KT 9999 OVC034 08/07 Q1023
 
LSMA - Alpnach, Switzerland
Distance from HB9FEE: SSW 29km
Updated: Wed, 20-Sep-2017 4:50am CEST
Overcast
Overcast
 Wind from varies
Wind: varies 2 km/h
Temperature: 9°C
Dew Point: 8°C
Humidity: 94%
Barometer: 1022 hPa
Clouds: Overcast
Visibility: 16 miles
Cloud details: Mostly Cloudy 1189 m
Overcast 1341 m
2017/09/20 02:50 LSMA 200250Z AUTO VRB01KT 9999NDV BKN039 OVC044 09/08 Q1022 RMK
LSMD - Dubendorf, Switzerland
Distance from HB9FEE: NE 29km
Updated: Wed, 20-Sep-2017 4:50am CEST
Overcast
Overcast
 Wind from NW
Wind: NW 6 km/h
Temperature: 10°C
Dew Point: 8°C
Humidity: 88%
Barometer: 1022 hPa
Clouds: Overcast
Visibility: 16 miles
Cloud details: Partly Cloudy 396 m
Mostly Cloudy 1067 m
Overcast 1219 m
2017/09/20 02:50 LSMD 200250Z AUTO 31003KT 280V340 9999NDV SCT013 BKN035 OVC040 10/08 Q1022 RMK
 
LSZH - Zurich-Kloten (a, Switzerland
Distance from HB9FEE: NNE 33km
Updated: Wed, 20-Sep-2017 5:50am CEST
Mostly Cloudy
Mostly Cloudy
 Wind from SSW
Wind: SSW 7 km/h
Temperature: 9°C
Wind Chill: 8°C
Dew Point: 8°C
Humidity: 94%
Barometer: 1022 hPa
Clouds: Mostly Cloudy
Visibility: 10 km
Cloud details: Few Clouds 183 m
Partly Cloudy 305 m
Mostly Cloudy 1219 m
2017/09/20 03:50 LSZH 200350Z 20004KT 170V240 9999 FEW006 SCT010 BKN040 09/08 Q1022 NOSIG
LSMM - Meiringen, Switzerland
Distance from HB9FEE: SSW 54km
Updated: Wed, 20-Sep-2017 4:50am CEST
Light rain, Showers, Overcast
Light rain, Showers, Overcast
 Wind from calm
Wind: Calm
Temperature: 8°C
Dew Point: 7°C
Humidity: 93%
Barometer: 1022 hPa
Summary: Light rain, Showers
Clouds: Overcast
Visibility: 16 miles
Cloud details: Few Clouds 122 m
Partly Cloudy 274 m
Overcast 1524 m
2017/09/20 02:50 LSMM 200250Z AUTO 00000KT 9999NDV -SHRA FEW004 SCT009 OVC050 08/07 Q1022 RMK
 
LSZB - Bern/Belp, Switzerland
Distance from HB9FEE: WSW 76km
Updated: Wed, 20-Sep-2017 5:50am CEST
Overcast
Overcast
 Wind from SSE
Wind: SSE 6 km/h
Temperature: 8°C
Dew Point: 8°C
Humidity: 100%
Barometer: 1022 hPa
Clouds: Overcast
Visibility: 10 km
Cloud details: Partly Cloudy 884 m
Overcast 1524 m
2017/09/20 03:50 LSZB 200350Z 15003KT 9999 SCT029 OVC050 08/08 Q1022 NOSIG
LSZG - Grenchen, Switzerland
Distance from HB9FEE: W 76km
Updated: Wed, 20-Sep-2017 5:50am CEST
Overcast
Overcast
 Wind from SSW
Wind: SSW 4 km/h
Temperature: 8°C
Dew Point: 8°C
Humidity: 100%
Barometer: 1022 hPa
Clouds: Overcast
Visibility: 9 km
Cloud details: Overcast 1829 m
2017/09/20 03:50 LSZG 200350Z AUTO 21002KT 9000 OVC060 08/08 Q1022
 
LFSB - Bale/Mulhouse, France
Distance from HB9FEE: NW 82km
Updated: Wed, 20-Sep-2017 5:30am CEST
Mostly Cloudy
Mostly Cloudy
 Wind from varies
Wind: varies 4 km/h
Temperature: 10°C
Dew Point: 9°C
Humidity: 94%
Barometer: 1022 hPa
Clouds: Mostly Cloudy
Visibility: 10 km
Cloud details: Mostly Cloudy 305 m
Mostly Cloudy 1219 m
2017/09/20 03:30 LFSB 200330Z VRB02KT 9999 BKN010 BKN040 10/09 Q1022 NOSIG
LSZR - Rheineck/Altenrh, Switzerland
Distance from HB9FEE: ENE 92km
Updated: Wed, 20-Sep-2017 5:50am CEST
Rain, Overcast
Rain, Overcast
 Wind from SE
Wind: SE 7 km/h
Temperature: 9°C
Wind Chill: 8°C
Dew Point: 8°C
Humidity: 94%
Barometer: 1022 hPa
Summary: Rain
Clouds: Overcast
Visibility: 9 km
Cloud details: Overcast 396 m
2017/09/20 03:50 LSZR 200350Z AUTO 13004KT 030V190 9000 RA OVC013 09/08 Q1022
 
LSZL - Locarno, Switzerland
Distance from HB9FEE: SSE 119km
Updated: Wed, 20-Sep-2017 4:50am CEST
Few Clouds
Few Clouds
 Wind from varies
Wind: varies 4 km/h
Temperature: 11°C
Dew Point: 4°C
Humidity: 62%
Barometer: 1015 hPa
Clouds: Few Clouds
Visibility: 16 miles
Cloud details: Few Clouds 3048 m
2017/09/20 02:50 LSZL 200250Z AUTO VRB02KT 9999NDV FEW100 11/04 Q1015 RMK
LSMP - Payerne (mil/Aut, Switzerland
Distance from HB9FEE: WSW 121km
Updated: Wed, 20-Sep-2017 4:50am CEST
Few Clouds
Few Clouds
 Wind from SSW
Wind: SSW 4 km/h
Temperature: 8°C
Dew Point: 7°C
Humidity: 93%
Barometer: 1022 hPa
Clouds: Few Clouds
Visibility: 2.7 miles
Cloud details: Few Clouds 1463 m
2017/09/20 02:50 LSMP 200250Z AUTO 21002KT 1700NDV FEW048 08/07 Q1022 RMK
 
LSGC - Les Eplatures, Switzerland
Distance from HB9FEE: W 123km
Updated: Wed, 20-Sep-2017 5:50am CEST
Overcast
Overcast
 Wind from calm
Wind: Calm
Temperature: 4°C
Dew Point: 4°C
Humidity: 100%
Barometer: 1022 hPa
Clouds: Overcast
Visibility: 10 km
Cloud details: Few Clouds 335 m
Partly Cloudy 732 m
Overcast 1402 m
2017/09/20 03:50 LSGC 200350Z AUTO 00000KT 9999 FEW011 SCT024 OVC046 04/04 Q1022
LSZS - Samedan, Switzerland
Distance from HB9FEE: ESE 133km
Updated: Wed, 20-Sep-2017 5:50am CEST
Partly Cloudy
Partly Cloudy
 Wind from varies
Wind: varies 2 km/h
Temperature: 1°C
Dew Point: 0°C
Humidity: 93%
Barometer: 1019 hPa
Clouds: Partly Cloudy
Visibility: 10 km
Cloud details: Mostly Cloudy 1494 m
Partly Cloudy 1829 m
2017/09/20 03:50 LSZS 200350Z AUTO VRB01KT 9999 BKN049 SCT060 01/M00 Q1019 RESN
 
LSGS - Sion (mil/Civ/Au, Switzerland
Distance from HB9FEE: SW 137km
Updated: Wed, 20-Sep-2017 5:50am CEST
Clear
Clear
 Wind from calm
Wind: Calm
Temperature: 6°C
Dew Point: 4°C
Humidity: 87%
Barometer: 1022 hPa
Summary: Clear
Visibility: greater than 10 km
2017/09/20 03:50 LSGS 200350Z AUTO 00000KT CAVOK 06/04 Q1022
LSZA - Lugano (pvt/Aut), Switzerland
Distance from HB9FEE: SSE 138km
Updated: Wed, 20-Sep-2017 5:50am CEST
Clear
Clear
 Wind from varies
Wind: varies 2 km/h
Temperature: 7°C
Dew Point: 7°C
Humidity: 100%
Barometer: 1015 hPa
Summary: Clear
Visibility: greater than 10 km
2017/09/20 03:50 LSZA 200350Z AUTO VRB01KT CAVOK 07/07 Q1015